createdAt,value
2022-10-01T00:01:15.228Z,12.15
2022-10-01T00:03:42.653Z,15.88
2022-10-01T00:06:19.475Z,11.20
2022-10-01T00:08:49.002Z,14.63
2022-10-01T00:11:24.432Z,11.10
2022-10-01T00:13:52.227Z,14.45
2022-10-01T00:16:21.879Z,14.10
2022-10-01T00:18:49.404Z,11.82
2022-10-01T00:21:21.601Z,16.13
2022-10-01T00:23:53.253Z,13.60
2022-10-01T00:26:22.109Z,16.55
2022-10-01T00:28:56.618Z,14.63
2022-10-01T00:31:23.503Z,16.83
2022-10-01T00:33:53.709Z,15.27
2022-10-01T00:36:20.605Z,14.65
2022-10-01T00:38:48.270Z,12.88
2022-10-01T00:41:17.329Z,10.52
2022-10-01T00:43:54.883Z,10.95
2022-10-01T00:46:42.343Z,14.43
2022-10-01T00:49:19.037Z,15.02
2022-10-01T00:51:50.789Z,14.10
2022-10-01T00:54:22.356Z,16.75
2022-10-01T00:56:53.584Z,19.25
2022-10-01T00:59:20.650Z,18.55
2022-10-01T01:01:47.330Z,20.83
2022-10-01T01:04:16.922Z,18.65
2022-10-01T01:06:57.826Z,15.40
2022-10-01T01:09:30.571Z,14.48
2022-10-01T01:12:22.077Z,14.77
2022-10-01T01:15:04.802Z,14.40
2022-10-01T01:17:52.977Z,11.18
2022-10-01T01:20:34.737Z,12.10
2022-10-01T01:23:04.275Z,13.93
2022-10-01T01:25:43.053Z,16.75
2022-10-01T01:28:44.030Z,11.63
2022-10-01T01:31:16.210Z,16.08
2022-10-01T01:33:46.556Z,9.32
2022-10-01T01:36:17.585Z,11.20
2022-10-01T01:38:54.853Z,14.98
2022-10-01T01:41:24.717Z,14.10
2022-10-01T01:46:21.048Z,13.25
2022-10-01T01:48:51.525Z,13.05
2022-10-01T01:51:28.016Z,23.40
2022-10-01T01:53:54.770Z,28.23
2022-10-01T01:56:21.474Z,19.77
2022-10-01T01:58:48.146Z,29.95
2022-10-01T02:01:34.780Z,20.13
2022-10-01T02:04:45.561Z,23.10
2022-10-01T02:07:25.485Z,15.30
2022-10-01T02:10:20.684Z,15.65
2022-10-01T02:12:54.900Z,21.73
2022-10-01T02:15:37.168Z,20.50
2022-10-01T02:18:16.677Z,19.48
2022-10-01T02:20:50.675Z,27.15
2022-10-01T02:23:25.450Z,26.52
2022-10-01T02:25:58.369Z,25.80
2022-10-01T02:28:25.298Z,20.58
2022-10-01T02:30:54.290Z,26.45
2022-10-01T02:33:31.053Z,21.60
2022-10-01T02:35:59.950Z,16.35
2022-10-01T02:38:28.409Z,21.53
2022-10-01T02:41:01.088Z,18.27
2022-10-01T02:43:34.028Z,15.20
2022-10-01T02:46:07.552Z,15.07
2022-10-01T02:48:34.285Z,15.82
2022-10-01T02:51:10.438Z,22.55
2022-10-01T02:53:44.473Z,15.38
2022-10-01T02:56:14.755Z,15.88
2022-10-01T02:58:41.997Z,15.00
2022-10-01T03:01:08.590Z,16.23
2022-10-01T03:03:35.233Z,16.65
2022-10-01T03:06:01.748Z,23.08
2022-10-01T03:08:28.258Z,23.90
2022-10-01T03:10:54.796Z,20.67
2022-10-01T03:13:23.454Z,18.90
2022-10-01T03:15:50.052Z,29.83
2022-10-01T03:18:16.648Z,30.67
2022-10-01T03:20:43.296Z,35.67
2022-10-01T03:23:09.814Z,29.92
2022-10-01T03:25:36.503Z,20.63
2022-10-01T03:28:03.036Z,17.20
2022-10-01T03:30:30.353Z,15.95
2022-10-01T03:32:56.876Z,130.98
2022-10-01T03:35:24.940Z,250.55
2022-10-01T03:37:51.503Z,58.28
2022-10-01T03:40:18.038Z,63.17
2022-10-01T03:42:44.521Z,50.38
2022-10-01T03:45:11.105Z,40.67
2022-10-01T03:47:37.778Z,39.20
2022-10-01T03:50:04.697Z,33.90
2022-10-01T03:52:31.206Z,20.75
2022-10-01T03:54:57.741Z,17.83
2022-10-01T03:57:24.256Z,20.55
2022-10-01T03:59:50.757Z,20.20
2022-10-01T04:02:17.406Z,20.25
2022-10-01T04:04:43.990Z,20.75
2022-10-01T04:07:10.491Z,23.58
2022-10-01T04:09:38.740Z,23.55
2022-10-01T04:12:05.827Z,24.10
2022-10-01T04:14:32.418Z,29.15
2022-10-01T04:16:59.106Z,19.33
2022-10-01T04:19:25.710Z,26.65
2022-10-01T04:21:52.289Z,24.95
2022-10-01T04:24:18.916Z,25.92
2022-10-01T04:26:45.573Z,17.23
2022-10-01T04:29:12.140Z,18.10
2022-10-01T04:31:40.390Z,20.88
2022-10-01T04:34:07.124Z,19.13
2022-10-01T04:36:33.744Z,19.30
2022-10-01T04:39:02.393Z,22.75
2022-10-01T04:41:30.868Z,21.55
2022-10-01T04:44:00.093Z,27.77
2022-10-01T04:46:28.240Z,21.65
2022-10-01T04:48:54.867Z,31.02
2022-10-01T04:51:21.481Z,30.42
2022-10-01T04:53:48.187Z,31.23
2022-10-01T04:56:14.763Z,28.40
2022-10-01T04:58:42.013Z,27.23
2022-10-01T05:01:08.752Z,29.50
2022-10-01T05:03:35.616Z,27.05
2022-10-01T05:06:02.289Z,34.70
2022-10-01T05:08:29.341Z,33.58
2022-10-01T05:10:55.929Z,26.75
2022-10-01T05:13:22.578Z,30.38
2022-10-01T05:15:52.244Z,44.33
2022-10-01T05:20:45.721Z,42.67
2022-10-01T05:23:12.300Z,51.95
2022-10-01T05:25:38.910Z,37.33
2022-10-01T05:28:05.939Z,49.47
2022-10-01T05:30:33.515Z,62.03
2022-10-01T05:33:02.363Z,54.55
2022-10-01T05:35:29.472Z,58.42
2022-10-01T05:38:01.006Z,57.83
2022-10-01T05:40:28.865Z,48.88
2022-10-01T05:43:00.063Z,52.50
2022-10-01T05:45:31.349Z,52.70
2022-10-01T05:48:05.983Z,51.38
2022-10-01T05:50:35.500Z,53.38
2022-10-01T05:53:02.876Z,51.40
2022-10-01T05:55:33.304Z,46.78
2022-10-01T05:58:10.499Z,40.00
2022-10-01T06:00:38.938Z,39.40
2022-10-01T06:03:06.671Z,41.83
2022-10-01T06:05:35.389Z,45.17
2022-10-01T06:08:05.213Z,36.60
2022-10-01T06:13:01.129Z,32.83
2022-10-01T06:15:28.428Z,33.00
2022-10-01T06:17:55.071Z,29.85
2022-10-01T06:20:21.758Z,33.92
2022-10-01T06:22:56.421Z,27.52
2022-10-01T06:25:23.839Z,33.83
2022-10-01T06:27:58.798Z,29.02
2022-10-01T06:30:27.285Z,25.02
2022-10-01T06:33:09.088Z,28.13
2022-10-01T06:35:39.867Z,36.22
2022-10-01T06:38:06.708Z,25.67
2022-10-01T06:40:33.346Z,23.88
2022-10-01T06:43:00.021Z,30.63
2022-10-01T06:45:28.191Z,31.92
2022-10-01T06:48:04.182Z,28.73
2022-10-01T06:50:32.253Z,26.13
2022-10-01T06:53:00.300Z,33.00
2022-10-01T06:55:32.212Z,33.33
2022-10-01T06:58:00.911Z,31.30
2022-10-01T07:00:30.790Z,27.13
2022-10-01T07:02:57.843Z,24.02
2022-10-01T07:05:25.772Z,25.85
2022-10-01T07:07:53.674Z,17.88
2022-10-01T07:10:21.693Z,23.30
2022-10-01T07:12:49.578Z,18.02
2022-10-01T07:15:18.212Z,20.27
2022-10-01T07:17:47.035Z,16.25
2022-10-01T07:20:14.898Z,17.40
2022-10-01T07:22:41.529Z,14.77
2022-10-01T07:25:08.587Z,14.05
2022-10-01T07:27:35.291Z,16.35
2022-10-01T07:30:02.008Z,14.60
2022-10-01T07:32:31.696Z,18.85
2022-10-01T07:37:25.405Z,15.43
2022-10-01T07:39:52.063Z,20.73
2022-10-01T07:42:18.721Z,13.77
2022-10-01T07:44:45.365Z,16.38
2022-10-01T07:47:12.250Z,11.07
2022-10-01T07:49:38.862Z,12.82
2022-10-01T07:52:10.898Z,10.85
2022-10-01T07:54:39.677Z,13.55
2022-10-01T07:57:06.272Z,11.13
2022-10-01T07:59:33.272Z,11.23
2022-10-01T08:02:01.045Z,9.65
2022-10-01T08:04:46.240Z,13.18
2022-10-01T08:07:12.928Z,21.75
2022-10-01T08:09:39.842Z,11.05
2022-10-01T08:12:07.078Z,14.82
2022-10-01T08:14:33.993Z,14.30
2022-10-01T08:17:00.698Z,8.35
2022-10-01T08:19:27.380Z,14.93
2022-10-01T08:21:53.984Z,12.15
2022-10-01T08:24:20.829Z,9.73
2022-10-01T08:26:57.998Z,13.18
2022-10-01T08:29:24.643Z,11.80
2022-10-01T08:31:51.328Z,8.75
2022-10-01T08:34:18.879Z,13.07
2022-10-01T08:36:45.836Z,11.82
2022-10-01T08:39:13.777Z,8.85
2022-10-01T08:42:11.096Z,9.77
2022-10-01T08:44:44.033Z,12.80
2022-10-01T08:47:28.132Z,10.70
2022-10-01T08:50:00.450Z,15.10
2022-10-01T08:52:30.810Z,10.98
2022-10-01T08:55:20.880Z,12.90
2022-10-01T08:57:52.255Z,9.73
2022-10-01T09:00:20.364Z,11.98
2022-10-01T09:02:48.225Z,12.32
2022-10-01T09:05:51.333Z,20.13
2022-10-01T09:08:43.794Z,16.83
2022-10-01T09:11:35.971Z,12.88
2022-10-01T09:14:11.736Z,8.35
2022-10-01T09:17:01.739Z,12.43
2022-10-01T09:19:55.145Z,11.18
2022-10-01T09:22:34.386Z,9.48
2022-10-01T09:25:11.439Z,9.52
2022-10-01T09:27:38.957Z,10.80
2022-10-01T09:30:12.414Z,15.38
2022-10-01T09:32:45.004Z,12.32
2022-10-01T09:35:47.164Z,14.77
2022-10-01T09:38:47.133Z,14.45
2022-10-01T09:41:14.831Z,8.52
2022-10-01T09:43:43.950Z,8.65
2022-10-01T09:46:15.217Z,12.85
2022-10-01T09:48:41.843Z,13.63
2022-10-01T09:51:22.487Z,14.15
2022-10-01T09:54:43.273Z,20.00
2022-10-01T09:57:14.228Z,64.00
2022-10-01T09:59:50.351Z,33.17
2022-10-01T10:02:27.836Z,14.63
2022-10-01T10:05:01.856Z,11.80
2022-10-01T10:07:32.441Z,12.23
2022-10-01T10:10:20.063Z,16.02
2022-10-01T10:12:53.772Z,12.30
2022-10-01T10:15:23.247Z,10.20
2022-10-01T10:20:36.229Z,10.82
2022-10-01T10:23:29.452Z,12.73
2022-10-01T10:26:02.918Z,11.95
2022-10-01T10:28:44.264Z,15.55
2022-10-01T10:31:19.282Z,8.80
2022-10-01T10:34:04.984Z,11.20
2022-10-01T10:36:36.119Z,17.02
2022-10-01T10:39:06.346Z,13.30
2022-10-01T10:41:34.510Z,13.52
2022-10-01T10:44:04.762Z,17.75
2022-10-01T10:46:34.924Z,15.20
2022-10-01T10:49:08.745Z,13.35
2022-10-01T10:51:56.141Z,13.60
2022-10-01T10:54:29.318Z,10.98
2022-10-01T10:57:02.544Z,13.98
2022-10-01T10:59:32.180Z,15.68
2022-10-01T11:04:39.813Z,15.23
2022-10-01T11:07:07.009Z,14.55
2022-10-01T11:09:58.507Z,15.20
2022-10-01T11:12:45.959Z,10.65
2022-10-01T11:15:45.591Z,13.85
2022-10-01T11:18:33.935Z,10.63
2022-10-01T11:21:28.816Z,13.85
2022-10-01T11:24:16.872Z,14.85
2022-10-01T11:26:55.849Z,14.82
2022-10-01T11:29:54.266Z,13.10
2022-10-01T11:32:36.063Z,8.88
2022-10-01T11:35:22.212Z,16.27
2022-10-01T11:38:07.658Z,15.63
2022-10-01T11:40:42.823Z,14.25
2022-10-01T11:43:33.187Z,15.40
2022-10-01T11:46:18.010Z,12.30
2022-10-01T11:48:53.095Z,13.10
2022-10-01T11:51:29.216Z,14.82
2022-10-01T11:54:06.927Z,21.38
2022-10-01T11:57:04.175Z,21.70
2022-10-01T11:59:39.504Z,12.48
2022-10-01T12:02:26.113Z,15.85
2022-10-01T12:05:00.092Z,12.43
2022-10-01T12:07:29.670Z,11.07
2022-10-01T12:12:48.421Z,15.05
2022-10-01T12:15:24.109Z,11.25
2022-10-01T12:17:59.962Z,10.85
2022-10-01T12:20:41.947Z,16.70
2022-10-01T12:23:17.920Z,13.70
2022-10-01T12:25:54.521Z,11.25
2022-10-01T12:28:52.096Z,14.60
2022-10-01T12:31:35.630Z,15.27
2022-10-01T12:34:24.201Z,16.70
2022-10-01T12:37:07.743Z,35.88
2022-10-01T12:39:40.615Z,20.92
2022-10-01T12:42:42.924Z,13.25
2022-10-01T12:45:24.743Z,18.27
2022-10-01T12:48:18.158Z,15.05
2022-10-01T12:51:14.295Z,12.68
2022-10-01T12:53:54.968Z,13.90
2022-10-01T12:56:33.590Z,13.50
2022-10-01T12:59:06.344Z,15.57
2022-10-01T13:01:42.198Z,16.60
2022-10-01T13:04:46.376Z,17.02
2022-10-01T13:07:46.913Z,17.05
2022-10-01T13:10:14.556Z,20.05
2022-10-01T13:13:12.305Z,20.58
2022-10-01T13:15:42.812Z,24.77
2022-10-01T13:18:26.439Z,24.45
2022-10-01T13:20:59.269Z,30.92
2022-10-01T13:23:55.241Z,33.03
2022-10-01T13:26:40.250Z,42.40
2022-10-01T13:29:25.080Z,42.28
2022-10-01T13:31:57.039Z,42.97
2022-10-01T13:34:41.663Z,48.40
2022-10-01T13:37:18.477Z,38.30
2022-10-01T13:39:48.475Z,33.72
2022-10-01T13:42:27.173Z,32.97
2022-10-01T13:44:58.053Z,34.65
2022-10-01T13:47:25.514Z,39.10
2022-10-01T13:50:04.821Z,38.22
2022-10-01T13:52:32.816Z,56.97
2022-10-01T13:55:01.509Z,71.18
2022-10-01T13:57:36.484Z,76.72
2022-10-01T14:00:06.531Z,69.65
2022-10-01T14:02:36.819Z,45.30
2022-10-01T14:05:29.921Z,39.25
2022-10-01T14:08:16.710Z,40.83
2022-10-01T14:11:27.491Z,30.42
2022-10-01T14:14:15.037Z,38.00
2022-10-01T14:16:45.363Z,34.22
2022-10-01T14:19:19.888Z,31.90
2022-10-01T14:22:27.407Z,39.13
2022-10-01T14:25:21.247Z,38.28
2022-10-01T14:28:09.207Z,32.67
2022-10-01T14:31:12.717Z,24.45
2022-10-01T14:34:08.956Z,26.67
2022-10-01T14:36:43.111Z,26.55
2022-10-01T14:39:20.282Z,24.75
2022-10-01T14:41:49.389Z,21.58
2022-10-01T14:44:22.153Z,21.70
2022-10-01T14:46:53.629Z,32.20
2022-10-01T14:49:23.623Z,29.85
2022-10-01T14:51:53.981Z,31.10
2022-10-01T14:54:21.236Z,29.67
2022-10-01T14:56:48.797Z,31.80
2022-10-01T14:59:36.800Z,23.65
2022-10-01T15:02:17.408Z,28.00
2022-10-01T15:04:49.405Z,28.98
2022-10-01T15:07:17.309Z,29.00
2022-10-01T15:09:48.023Z,25.92
2022-10-01T15:12:17.392Z,23.58
2022-10-01T15:14:45.457Z,22.83
2022-10-01T15:17:27.445Z,16.27
2022-10-01T15:19:56.657Z,16.13
2022-10-01T15:22:28.090Z,18.50
2022-10-01T15:24:59.653Z,12.93
2022-10-01T15:27:26.543Z,15.65
2022-10-01T15:29:57.404Z,18.63
2022-10-01T15:32:25.474Z,15.48
2022-10-01T15:34:55.080Z,16.70
2022-10-01T15:37:44.786Z,14.63
2022-10-01T15:40:25.347Z,12.20
2022-10-01T15:43:27.613Z,11.05
2022-10-01T15:46:11.327Z,16.75
2022-10-01T15:48:38.301Z,14.07
2022-10-01T15:51:27.572Z,12.10
2022-10-01T15:54:06.120Z,12.63
2022-10-01T15:56:33.077Z,11.77
2022-10-01T15:59:11.086Z,10.85
2022-10-01T16:01:41.226Z,10.73
2022-10-01T16:04:11.888Z,11.85
2022-10-01T16:06:43.374Z,14.73
2022-10-01T16:09:27.894Z,16.02
2022-10-01T16:11:55.191Z,12.93
2022-10-01T16:14:44.286Z,10.55
2022-10-01T16:17:16.972Z,10.38
2022-10-01T16:19:52.257Z,12.85
2022-10-01T16:22:27.648Z,12.07
2022-10-01T16:24:57.709Z,14.15
2022-10-01T16:27:26.639Z,13.40
2022-10-01T16:30:08.458Z,18.40
2022-10-01T16:32:35.521Z,11.77
2022-10-01T16:35:18.949Z,13.52
2022-10-01T16:37:46.104Z,11.60
2022-10-01T16:40:16.174Z,13.10
2022-10-01T16:42:44.542Z,14.05
2022-10-01T16:45:16.939Z,16.45
2022-10-01T16:47:45.180Z,15.40
2022-10-01T16:50:14.556Z,18.48
2022-10-01T16:52:41.483Z,19.02
2022-10-01T16:55:22.768Z,14.23
2022-10-01T16:57:56.094Z,17.38
2022-10-01T17:00:25.762Z,16.25
2022-10-01T17:02:54.274Z,15.88
2022-10-01T17:05:29.205Z,17.80
2022-10-01T17:08:03.642Z,18.88
2022-10-01T17:10:35.850Z,16.70
2022-10-01T17:13:03.767Z,18.85
2022-10-01T17:15:31.157Z,21.80
2022-10-01T17:17:59.396Z,19.58
2022-10-01T17:20:31.521Z,18.25
2022-10-01T17:22:58.619Z,18.88
2022-10-01T17:25:34.213Z,21.90
2022-10-01T17:28:07.164Z,14.50
2022-10-01T17:30:34.845Z,17.10
2022-10-01T17:33:01.631Z,16.45
2022-10-01T17:35:29.805Z,15.02
2022-10-01T17:37:57.167Z,14.50
2022-10-01T17:40:23.890Z,15.52
2022-10-01T17:42:50.552Z,18.98
2022-10-01T17:45:20.329Z,22.05
2022-10-01T17:50:14.973Z,19.42
2022-10-01T17:52:41.735Z,18.48
2022-10-01T17:55:08.992Z,14.98
2022-10-01T17:57:35.673Z,19.83
2022-10-01T18:00:02.776Z,25.52
2022-10-01T18:02:41.543Z,23.55
2022-10-01T18:05:09.858Z,24.25
2022-10-01T18:07:37.270Z,25.17
2022-10-01T18:10:10.125Z,20.02
2022-10-01T18:12:36.883Z,21.52
2022-10-01T18:15:04.101Z,21.50
2022-10-01T18:17:32.335Z,25.00
2022-10-01T18:19:59.321Z,32.67
2022-10-01T18:22:26.619Z,19.83
2022-10-01T18:24:53.310Z,28.10
2022-10-01T18:27:20.038Z,26.85
2022-10-01T18:29:46.694Z,26.17
2022-10-01T18:32:24.629Z,24.50
2022-10-01T18:34:59.475Z,28.20
2022-10-01T18:37:40.317Z,34.65
2022-10-01T18:40:34.651Z,29.95
2022-10-01T18:43:23.664Z,32.15
2022-10-01T18:45:53.404Z,26.42
2022-10-01T18:51:12.743Z,26.70
2022-10-01T18:57:04.737Z,26.25
2022-10-01T19:00:13.113Z,20.67
2022-10-01T19:02:58.583Z,23.98
2022-10-01T19:05:46.043Z,33.53
2022-10-01T19:08:15.410Z,23.85
2022-10-01T19:10:41.993Z,23.83
2022-10-01T19:13:20.527Z,21.80
2022-10-01T19:15:57.143Z,27.23
2022-10-01T19:18:26.824Z,28.70
2022-10-01T19:21:02.786Z,23.00
2022-10-01T19:23:38.703Z,31.38
2022-10-01T19:26:17.583Z,30.83
2022-10-01T19:28:56.519Z,24.90
2022-10-01T19:31:37.637Z,21.27
2022-10-01T19:34:18.658Z,19.58
2022-10-01T19:36:52.476Z,28.17
2022-10-01T19:39:25.769Z,27.02
2022-10-01T19:42:06.805Z,26.33
2022-10-01T19:45:04.813Z,30.73
2022-10-01T19:47:46.015Z,30.15
2022-10-01T19:50:24.140Z,29.00
2022-10-01T19:52:53.984Z,26.33
2022-10-01T19:57:48.885Z,28.77
2022-10-01T20:00:19.530Z,28.60
2022-10-01T20:02:58.226Z,29.83
2022-10-01T20:05:35.174Z,27.48
2022-10-01T20:08:14.176Z,28.48
2022-10-01T20:10:53.468Z,58.35
2022-10-01T20:13:25.770Z,31.20
2022-10-01T20:15:58.446Z,36.13
2022-10-01T20:18:34.017Z,37.47
2022-10-01T20:21:35.644Z,29.58
2022-10-01T20:24:21.208Z,16.45
2022-10-01T20:27:06.954Z,15.18
2022-10-01T20:29:55.888Z,12.77
2022-10-01T20:32:29.917Z,13.30
2022-10-01T20:35:15.320Z,12.80
2022-10-01T20:38:06.984Z,14.82
2022-10-01T20:40:43.202Z,10.13
2022-10-01T20:43:18.193Z,9.88
2022-10-01T20:45:48.442Z,10.73
2022-10-01T20:48:22.663Z,11.48
2022-10-01T20:50:54.156Z,11.07
2022-10-01T20:53:34.936Z,9.93
2022-10-01T20:56:08.001Z,10.50
2022-10-01T20:58:44.473Z,11.32
2022-10-01T21:01:20.507Z,16.80
2022-10-01T21:03:52.303Z,9.15
2022-10-01T21:06:26.610Z,9.35
2022-10-01T21:08:58.909Z,11.50
2022-10-01T21:11:34.871Z,7.78
2022-10-01T21:14:45.642Z,10.00
2022-10-01T21:17:36.543Z,8.63
2022-10-01T21:20:14.138Z,11.40
2022-10-01T21:23:08.528Z,9.85
2022-10-01T21:26:03.061Z,10.60
2022-10-01T21:28:29.673Z,12.13
2022-10-01T21:31:18.083Z,10.95
2022-10-01T21:33:54.288Z,9.90
2022-10-01T21:36:30.865Z,9.25
2022-10-01T21:39:11.012Z,12.38
2022-10-01T21:41:48.329Z,9.85
2022-10-01T21:44:33.116Z,11.13
2022-10-01T21:47:14.212Z,10.73
2022-10-01T21:49:50.132Z,8.85
2022-10-01T21:52:31.428Z,9.93
2022-10-01T21:55:06.040Z,11.85
2022-10-01T21:57:53.870Z,8.48
2022-10-01T22:00:26.397Z,10.70
2022-10-01T22:03:39.776Z,8.77
2022-10-01T22:06:19.510Z,11.27
2022-10-01T22:09:04.367Z,8.93
2022-10-01T22:11:41.017Z,10.40
2022-10-01T22:14:17.542Z,11.23
2022-10-01T22:16:53.347Z,6.57
2022-10-01T22:19:28.651Z,9.13
2022-10-01T22:22:03.302Z,9.23
2022-10-01T22:24:36.740Z,9.25
2022-10-01T22:27:40.137Z,8.63
2022-10-01T22:30:21.816Z,5.88
2022-10-01T22:33:01.287Z,7.68
2022-10-01T22:35:34.055Z,8.35
2022-10-01T22:38:09.921Z,8.18
2022-10-01T22:40:45.616Z,7.50
2022-10-01T22:43:13.806Z,6.57
2022-10-01T22:45:49.499Z,8.25
2022-10-01T22:48:31.505Z,6.40
2022-10-01T22:51:16.771Z,8.65
2022-10-01T22:53:58.669Z,8.60
2022-10-01T22:56:46.777Z,13.68
2022-10-01T22:59:29.974Z,8.02
2022-10-01T23:02:29.008Z,14.85
2022-10-01T23:05:17.171Z,8.43
2022-10-01T23:08:35.212Z,15.05
2022-10-01T23:11:23.525Z,9.02
2022-10-01T23:13:59.115Z,10.55
2022-10-01T23:16:40.721Z,8.57
2022-10-01T23:19:25.588Z,10.52
2022-10-01T23:22:08.366Z,10.27
2022-10-01T23:24:50.173Z,10.65
2022-10-01T23:27:25.603Z,10.82
2022-10-01T23:29:58.108Z,25.35
2022-10-01T23:32:36.409Z,25.38
2022-10-01T23:35:09.280Z,20.83
2022-10-01T23:37:50.376Z,16.05
2022-10-01T23:40:22.478Z,17.00
2022-10-01T23:43:19.317Z,12.05
2022-10-01T23:45:51.991Z,11.38
2022-10-01T23:48:28.203Z,9.13
2022-10-01T23:51:03.572Z,9.88
2022-10-01T23:53:37.709Z,9.50
2022-10-01T23:56:29.370Z,9.45
2022-10-01T23:59:16.400Z,8.68
